To NAV CANADA Home Page Login to a new session Search on AWWS site Feedback and Comments Disclaimer Vers la page française équivalente Tips FAQ What's new on the site To the Forecasts and Observations / NOTAM section To "File a Flight Plan" website Publications and other links Update of the User's profile FIC Telephone Numbers My Weather Data Folder Route Weather Data Regional Weather Data Local Weather Data To the Forecasts and Observations / NOTAM section
Request Generated 05/06/2016 at 16:52:18 UTC . Weather information available at that time is displayed.

METAR/TAF

GANDER/GANDER INTL/NL    

SPECI CYQX 061610Z 13007KT 4SM -RA BR BKN004 OVC022 05/04 A2980 RMK
SF6SC2 SLP098=
METAR CYQX 061600Z 12005KT 2 1/2SM RA BR BKN004 OVC020 05/04 A2980
RMK FG2SF5SC1 /R10/ SLP100=
SPECI CYQX 061516Z 11008KT 4SM -RA BR BKN004 OVC020 04/04 A2981 RMK
SF5SC3 SLP102=
METAR CYQX 061500Z 12010KT 3SM RA BR BKN004 OVC020 04/03 A2982 RMK
SF5SC3 VIS HIER SE SLP105=
SPECI CYQX 061449Z 12009KT 5SM -RA BR BKN004 OVC020 04/03 A2982 RMK
SF5SC3 SLP105=
SPECI CYQX 061424Z 11009KT 2 1/2SM -RA BR BKN004 BKN012 OVC025 04/03
A2983 RMK FG2SF4SC1SC1 SLP108=
SPECI CYQX 061416Z 11011KT 4SM -RA BR BKN004 BKN014 OVC025 04/03
A2983 RMK SF5SC1SC2 VIS HIER N-NE SLP109=
METAR CYQX 061400Z 11011KT 3SM RA BR BKN004 OVC014 04/03 A2984 RMK
SF5SC3 SLP112=

TAF CYQX 061139Z 0612/0712 10010KT 2SM -RA BR BKN003 OVC006 TEMPO
0612/0621 3SM -RA BR SCT003 OVC006
BECMG 0619/0621 31008KT
FM062100 31010KT 3/4SM -DZ BR OVC003
FM070300 31010KT 1/2SM FG VV002
FM071100 34010KT 2SM BR OVC005
RMK NXT FCST BY 061800Z=
Your time UTC time
Weather data provided by Environment Canada and NAV CANADA